Time;durP1;ratioP1;P1;durP2;ratioP2;P2;SDS_P1;SDS_P2;PMS_P1;PMS_P2;Temp;Humidity;BMP_temperature;BMP_pressure;BME280_temperature;BME280_humidity;BME280_pressure;Samples;Min_cycle;Max_cycle;Signal;HPM_P1;HPM_P2
2021/03/07 00:02:33;;;;;;;30.52;12.30;;;;;;;-2.07;100.00;100154.67;4286841;81;43438;-81
2021/03/07 00:08:38;;;;;;;30.95;12.63;;;;;;;-2.15;100.00;100150.48;4329219;81;43401;-80
2021/03/07 00:14:42;;;;;;;27.13;11.93;;;;;;;-2.27;100.00;100151.81;4161439;84;43340;-81
2021/03/07 00:20:44;;;;;;;28.27;11.38;;;;;;;-2.36;100.00;100148.58;4211304;82;43509;-80
2021/03/07 00:26:48;;;;;;;25.45;11.05;;;;;;;-2.40;100.00;100132.16;4242463;81;43310;-80
2021/03/07 00:32:50;;;;;;;26.35;11.70;;;;;;;-2.42;100.00;100133.27;4250471;81;43055;-81
2021/03/07 00:38:53;;;;;;;25.65;11.15;;;;;;;-2.45;100.00;100113.27;4205457;82;43370;-82
2021/03/07 00:44:57;;;;;;;25.10;11.20;;;;;;;-2.47;100.00;100094.58;4207860;83;42881;-83
2021/03/07 00:51:00;;;;;;;23.47;9.73;;;;;;;-2.47;100.00;100069.56;4194200;84;43926;-80
2021/03/07 00:57:03;;;;;;;23.07;8.95;;;;;;;-2.49;100.00;100069.70;4251821;83;43906;-80
2021/03/07 01:03:05;;;;;;;18.17;8.48;;;;;;;-2.35;100.00;100048.02;4236145;82;43932;-81
2021/03/07 01:09:08;;;;;;;18.42;8.00;;;;;;;-2.34;100.00;100043.09;4271110;82;43959;-79
2021/03/07 01:15:10;;;;;;;19.65;7.42;;;;;;;-2.30;100.00;100040.09;4265966;82;43985;-81
2021/03/07 01:21:13;;;;;;;23.20;8.08;;;;;;;-2.14;100.00;100030.94;4271796;82;43957;-81
2021/03/07 01:27:15;;;;;;;19.37;8.05;;;;;;;-2.12;100.00;100019.82;4261407;82;43926;-81
2021/03/07 01:33:18;;;;;;;18.80;7.28;;;;;;;-2.09;100.00;100009.02;4207622;82;43962;-81
2021/03/07 01:39:20;;;;;;;17.42;7.80;;;;;;;-2.13;100.00;99995.75;4332878;80;43916;-80
2021/03/07 01:45:25;;;;;;;18.07;7.78;;;;;;;-2.20;100.00;99974.81;4350079;80;43939;-80
2021/03/07 01:51:27;;;;;;;14.50;7.05;;;;;;;-2.22;100.00;99968.84;4348533;80;28631;-80
2021/03/07 01:57:31;;;;;;;15.23;6.97;;;;;;;-2.19;100.00;99949.63;4329182;81;43986;-80
2021/03/07 02:03:33;;;;;;;16.50;7.15;;;;;;;-2.14;100.00;99939.56;4191428;84;43951;-81
2021/03/07 02:09:37;;;;;;;16.87;6.85;;;;;;;-2.13;100.00;99947.00;4187008;84;44016;-80
2021/03/07 02:15:43;;;;;;;15.40;6.67;;;;;;;-2.08;100.00;99951.87;4190498;83;43943;-81
2021/03/07 02:21:49;;;;;;;16.02;7.17;;;;;;;-2.16;100.00;99950.72;4195811;84;43931;-81
2021/03/07 02:27:52;;;;;;;16.95;7.60;;;;;;;-2.10;100.00;99944.11;4175657;84;43911;-80
2021/03/07 02:34:16;;;;;;;13.00;6.28;;;;;;;-2.09;100.00;99941.83;4201575;84;43563;-80
2021/03/07 02:40:22;;;;;;;16.77;7.65;;;;;;;-2.17;100.00;99940.30;4189324;84;43915;-79
2021/03/07 02:46:29;;;;;;;12.60;5.78;;;;;;;-2.14;100.00;99946.16;4185911;83;43268;-80
2021/03/07 02:52:32;;;;;;;14.77;6.77;;;;;;;-2.16;100.00;99940.18;4156207;84;28571;-80
2021/03/07 02:58:37;;;;;;;14.80;6.62;;;;;;;-2.13;100.00;99932.02;4311365;81;43979;-81
2021/03/07 03:04:42;;;;;;;15.08;7.75;;;;;;;-2.25;100.00;99931.71;4311493;81;28575;-79
2021/03/07 03:10:47;;;;;;;16.85;7.08;;;;;;;-2.46;100.00;99928.55;4332831;80;43906;-78
2021/03/07 03:16:54;;;;;;;14.45;6.97;;;;;;;-2.52;100.00;99927.25;4185799;84;43922;-78
2021/03/07 03:22:58;;;;;;;13.98;6.92;;;;;;;-2.66;100.00;99916.52;4178991;84;43941;-77
2021/03/07 03:29:03;;;;;;;13.85;6.30;;;;;;;-2.74;100.00;99914.16;4174414;84;44068;-84
2021/03/07 03:35:10;;;;;;;12.93;6.10;;;;;;;-2.78;100.00;99916.66;4323878;81;43355;-84
2021/03/07 03:41:15;;;;;;;15.88;6.80;;;;;;;-2.77;100.00;99930.17;4323641;81;43920;-84
2021/03/07 03:47:20;;;;;;;14.45;6.50;;;;;;;-2.70;100.00;99927.41;4301882;81;43912;-84
2021/03/07 03:53:23;;;;;;;12.80;6.12;;;;;;;-2.74;100.00;99922.05;4325141;81;43210;-83
2021/03/07 03:59:29;;;;;;;13.58;6.40;;;;;;;-2.81;100.00;99921.71;4350143;81;43926;-84
2021/03/07 04:05:31;;;;;;;;;;;;;;;-2.89;100.00;99914.41;4328017;81;28588;-85
2021/03/07 04:11:34;;;;;;;13.95;6.33;;;;;;;-2.93;100.00;99916.94;4310455;81;43927;-86
2021/03/07 04:17:39;;;;;;;13.57;6.63;;;;;;;-3.00;100.00;99917.91;4320498;80;28544;-86
2021/03/07 04:23:41;;;;;;;14.38;6.17;;;;;;;-2.90;100.00;99913.23;4345868;81;43918;-85
2021/03/07 04:29:44;;;;;;;10.40;5.87;;;;;;;-2.99;100.00;99907.73;4335671;81;43212;-84
2021/03/07 04:35:46;;;;;;;13.70;6.62;;;;;;;-2.98;100.00;99906.77;4313084;81;43983;-85
2021/03/07 04:41:49;;;;;;;13.53;6.20;;;;;;;-3.04;100.00;99902.48;4347600;81;43934;-85
2021/03/07 04:47:53;;;;;;;12.35;5.92;;;;;;;-3.08;100.00;99891.36;4324582;81;43215;-86
2021/03/07 04:53:56;;;;;;;11.80;5.30;;;;;;;-3.16;100.00;99880.59;4375779;81;43311;-87
2021/03/07 04:59:58;;;;;;;13.72;6.30;;;;;;;-3.20;100.00;99871.29;4310343;81;44260;-87
2021/03/07 05:06:00;;;;;;;14.20;6.25;;;;;;;-3.18;100.00;99857.53;4325973;81;43928;-86
2021/03/07 05:12:03;;;;;;;12.15;5.97;;;;;;;-3.18;100.00;99847.00;4359261;81;43238;-87
2021/03/07 05:18:06;;;;;;;15.03;6.35;;;;;;;-3.19;100.00;99840.89;4333824;81;43908;-86
2021/03/07 05:24:09;;;;;;;14.53;6.37;;;;;;;-3.18;100.00;99835.98;4358466;81;43930;-87
2021/03/07 05:30:12;;;;;;;12.03;6.10;;;;;;;-3.19;100.00;99829.55;4344025;81;43225;-84
2021/03/07 05:36:15;;;;;;;12.33;5.72;;;;;;;-3.10;100.00;99834.91;4307463;81;43234;-84
2021/03/07 05:42:17;;;;;;;12.90;6.42;;;;;;;-3.00;100.00;99839.43;4304845;81;43904;-83
2021/03/07 05:48:20;;;;;;;13.58;6.60;;;;;;;-2.85;100.00;99836.04;4304409;81;43951;-85
2021/03/07 05:54:23;;;;;;;11.55;6.25;;;;;;;-2.73;100.00;99829.77;4324612;81;43289;-84
2021/03/07 06:00:25;;;;;;;13.68;6.20;;;;;;;-2.68;100.00;99819.72;4323851;81;43916;-83
2021/03/07 06:06:30;;;;;;;11.65;5.95;;;;;;;-2.53;100.00;99820.25;4357591;81;43217;-85
2021/03/07 06:12:32;;;;;;;10.20;5.73;;;;;;;-2.23;100.00;99823.58;4330005;81;28553;-86
2021/03/07 06:18:45;;;;;;;13.70;5.85;;;;;;;-1.99;100.00;99816.69;4173189;84;43564;-88
2021/03/07 06:24:48;;;;;;;9.28;5.37;;;;;;;-2.05;100.00;99804.06;4166584;84;42787;-85
2021/03/07 06:30:51;;;;;;;11.78;5.50;;;;;;;-1.80;100.00;99812.02;4229958;82;43240;-86
2021/03/07 06:37:03;;;;;;;11.05;6.00;;;;;;;-1.62;100.00;99819.30;4201617;84;43246;-84
2021/03/07 06:43:21;;;;;;;12.25;6.05;;;;;;;-1.45;100.00;99817.35;4248612;83;43213;-85
2021/03/07 06:49:28;;;;;;;11.70;6.47;;;;;;;-1.28;100.00;99825.61;4231473;83;43267;-84
2021/03/07 06:55:43;;;;;;;12.15;6.58;;;;;;;-1.12;100.00;99814.03;4234406;83;43215;-86
2021/03/07 07:01:49;;;;;;;15.63;7.72;;;;;;;-0.95;100.00;99805.58;4260463;83;43922;-84
2021/03/07 07:07:51;;;;;;;15.55;7.85;;;;;;;-0.72;100.00;99808.80;4229078;83;43951;-83
2021/03/07 07:13:53;;;;;;;13.60;6.72;;;;;;;-0.58;100.00;99799.12;4202098;84;44265;-84
2021/03/07 07:19:58;;;;;;;16.87;8.80;;;;;;;-0.36;100.00;99795.86;4194868;84;28553;-82
2021/03/07 07:26:01;;;;;;;17.57;8.68;;;;;;;-0.05;100.00;99793.02;4163975;84;43953;-82
2021/03/07 07:32:30;;;;;;;14.45;7.97;;;;;;;0.13;95.76;99793.56;4202577;84;44005;-82
2021/03/07 07:38:34;;;;;;;16.87;8.05;;;;;;;0.35;94.69;99787.56;4167473;84;43915;-83
2021/03/07 07:44:37;;;;;;;17.03;8.30;;;;;;;0.59;92.95;99769.83;4208376;84;28646;-82
2021/03/07 07:50:42;;;;;;;16.45;7.83;;;;;;;0.73;90.10;99755.74;4184355;83;43907;-82
2021/03/07 07:56:44;;;;;;;20.15;8.15;;;;;;;0.96;90.26;99746.88;4206153;84;43933;-81
2021/03/07 08:02:52;;;;;;;19.65;8.40;;;;;;;1.14;89.04;99741.58;4173852;83;43966;-83
2021/03/07 08:08:55;;;;;;;16.90;8.05;;;;;;;1.21;83.93;99736.52;4245882;82;43910;-84
2021/03/07 08:14:57;;;;;;;18.50;8.10;;;;;;;1.44;84.42;99724.92;4269649;82;43959;-84
2021/03/07 08:21:01;;;;;;;15.38;7.15;;;;;;;1.52;82.92;99721.02;4283924;82;43977;-84
2021/03/07 08:27:04;;;;;;;12.70;6.80;;;;;;;1.72;81.30;99714.66;4252292;82;28603;-82
2021/03/07 08:33:26;;;;;;;12.30;6.40;;;;;;;1.91;80.48;99706.48;4243270;82;43232;-82
2021/03/07 08:39:29;;;;;;;9.90;5.05;;;;;;;2.00;76.54;99711.84;4242957;82;43234;-81
2021/03/07 08:45:32;;;;;;;8.48;4.72;;;;;;;2.15;73.27;99707.61;4259787;82;28568;-88
2021/03/07 08:51:36;;;;;;;9.30;4.53;;;;;;;2.10;69.77;99682.04;4276228;82;28589;-83
2021/03/07 08:57:46;;;;;;;10.55;5.05;;;;;;;2.13;67.84;99688.34;4256489;82;28564;-83
2021/03/07 09:04:00;;;;;;;7.83;4.55;;;;;;;2.19;69.21;99660.37;4260062;82;42694;-86
2021/03/07 09:10:03;;;;;;;9.83;5.37;;;;;;;2.20;65.91;99656.20;4366338;81;28557;-88
2021/03/07 09:16:07;;;;;;;8.50;4.78;;;;;;;2.47;67.33;99646.33;4315909;81;42725;-84
2021/03/07 09:22:25;;;;;;;9.63;4.87;;;;;;;2.67;66.99;99656.66;4343134;81;28589;-95
2021/03/07 09:28:49;;;;;;;8.28;4.50;;;;;;;2.77;65.66;99643.20;4317156;81;28555;-87
2021/03/07 09:34:51;;;;;;;8.30;4.58;;;;;;;2.76;62.94;99616.31;4330925;81;28543;-83
2021/03/07 09:40:53;;;;;;;8.63;4.92;;;;;;;3.00;64.73;99618.14;4324205;81;28610;-86
2021/03/07 09:46:55;;;;;;;8.60;4.40;;;;;;;3.19;64.14;99616.95;4319120;81;28575;-90
2021/03/07 09:52:58;;;;;;;10.35;4.75;;;;;;;3.02;60.51;99604.19;4341136;81;28608;-85
2021/03/07 09:59:25;;;;;;;8.85;4.28;;;;;;;3.08;62.98;99583.27;4338972;81;28561;-89
2021/03/07 10:05:27;;;;;;;8.50;4.58;;;;;;;3.27;62.16;99584.72;4338895;80;28649;-90
2021/03/07 10:11:31;;;;;;;10.75;4.95;;;;;;;3.34;63.27;99583.05;4164456;84;28648;-87
2021/03/07 10:17:39;;;;;;;10.85;5.60;;;;;;;3.30;64.49;99575.06;4165213;83;28662;-85
2021/03/07 10:23:41;;;;;;;11.97;5.25;;;;;;;3.46;64.70;99563.55;4172778;84;28636;-91
2021/03/07 10:29:47;;;;;;;12.37;5.70;;;;;;;3.39;62.27;99543.47;4181908;84;28585;-84
2021/03/07 10:42:36;;;;;;;11.28;5.70;;;;;;;3.44;62.64;99548.28;4608568;76;72230;-86
2021/03/07 10:48:38;;;;;;;10.03;5.05;;;;;;;3.46;59.38;99552.91;4508472;78;28578;-86
2021/03/07 10:54:41;;;;;;;13.20;5.70;;;;;;;3.40;61.02;99536.34;4465312;78;28614;-86
2021/03/07 11:00:44;;;;;;;9.90;4.85;;;;;;;3.59;59.01;99521.31;4498495;78;28554;-85
2021/03/07 11:06:45;;;;;;;11.40;5.03;;;;;;;3.68;61.88;99504.80;4497807;78;28611;-89
2021/03/07 11:12:48;;;;;;;8.78;4.65;;;;;;;3.65;60.64;99499.00;4484303;78;28595;-85
2021/03/07 11:18:51;;;;;;;11.65;5.17;;;;;;;3.69;58.00;99493.64;4509446;78;28616;-85
2021/03/07 11:24:55;;;;;;;8.03;3.98;;;;;;;3.86;59.01;99485.09;4494480;78;28598;-87
2021/03/07 11:30:58;;;;;;;8.53;4.15;;;;;;;3.79;56.81;99486.79;4493306;78;28570;-83
2021/03/07 11:37:00;;;;;;;7.03;3.50;;;;;;;3.94;57.46;99467.72;4495072;78;28578;-84
2021/03/07 11:43:02;;;;;;;7.92;4.10;;;;;;;4.03;56.64;99436.06;4470511;78;28632;-89
2021/03/07 11:49:05;;;;;;;8.10;4.58;;;;;;;3.87;54.79;99425.56;4506283;78;28553;-89
2021/03/07 11:55:09;;;;;;;7.87;4.53;;;;;;;3.98;56.56;99416.31;4495932;78;28647;-88
2021/03/07 12:01:11;;;;;;;7.95;4.00;;;;;;;4.08;56.46;99412.91;4493714;78;28562;-85
2021/03/07 12:07:15;;;;;;;7.67;3.95;;;;;;;4.04;55.58;99395.14;4483067;78;28564;-92
2021/03/07 12:13:17;;;;;;;6.97;3.40;;;;;;;4.25;55.17;99386.16;4391087;80;28574;-92
2021/03/07 12:19:21;;;;;;;7.65;3.47;;;;;;;4.33;53.74;99384.75;4351731;81;28603;-88
2021/03/07 12:25:25;;;;;;;5.62;2.95;;;;;;;4.60;53.26;99367.81;4354310;80;28623;-89
2021/03/07 12:31:27;;;;;;;8.18;3.85;;;;;;;4.50;49.38;99361.94;4328669;81;28629;-91
2021/03/07 12:37:30;;;;;;;7.25;3.60;;;;;;;4.49;50.10;99351.80;4352696;81;28654;-96
2021/03/07 12:43:32;;;;;;;6.08;3.47;;;;;;;4.57;49.60;99336.23;4346499;81;28568;-88
2021/03/07 12:49:34;;;;;;;6.28;3.50;;;;;;;4.60;48.79;99334.52;4363488;80;28581;-87
2021/03/07 12:55:37;;;;;;;7.10;3.35;;;;;;;4.69;49.37;99321.42;4362330;81;28614;-91
2021/03/07 13:01:40;;;;;;;5.87;3.00;;;;;;;4.63;49.43;99323.48;4357494;80;28540;-85
2021/03/07 13:07:42;;;;;;;6.55;3.05;;;;;;;4.77;49.33;99302.37;4337106;81;28543;-89
2021/03/07 13:13:44;;;;;;;7.67;3.90;;;;;;;4.72;47.98;99301.59;4347387;80;28556;-87
2021/03/07 13:19:49;;;;;;;6.03;2.70;;;;;;;4.85;48.33;99296.41;4351554;80;28591;-87
2021/03/07 13:25:51;;;;;;;7.97;3.10;;;;;;;4.85;47.08;99287.61;4349234;81;28563;-90
2021/03/07 13:31:54;;;;;;;5.45;2.77;;;;;;;4.92;47.39;99279.16;4353049;80;28621;-91
2021/03/07 13:37:56;;;;;;;5.28;3.02;;;;;;;4.97;46.95;99258.12;4330197;80;28614;-84
2021/03/07 13:43:58;;;;;;;7.47;3.22;;;;;;;5.07;46.58;99250.33;4362278;80;28551;-85
2021/03/07 13:50:12;;;;;;;5.37;2.92;;;;;;;5.13;45.45;99259.72;4382966;80;28554;-90
2021/03/07 13:56:15;;;;;;;6.47;3.03;;;;;;;5.11;45.37;99233.77;4315925;81;28547;-94
2021/03/07 14:02:18;;;;;;;6.33;3.08;;;;;;;5.07;45.41;99223.67;4330058;81;28555;-87
2021/03/07 14:08:20;;;;;;;4.53;2.70;;;;;;;5.01;44.91;99226.07;4384877;80;28600;-84
2021/03/07 14:14:22;;;;;;;6.75;3.08;;;;;;;5.07;45.67;99199.69;4300176;81;28599;-90
2021/03/07 14:20:27;;;;;;;6.05;2.70;;;;;;;5.07;44.68;99210.35;4300197;81;28571;-89
2021/03/07 14:26:29;;;;;;;5.35;3.00;;;;;;;5.05;43.51;99188.38;4396621;80;28597;-89
2021/03/07 14:32:34;;;;;;;5.92;2.90;;;;;;;4.99;43.91;99169.48;4292131;81;28612;-87
2021/03/07 14:38:36;;;;;;;6.67;2.90;;;;;;;5.05;44.57;99165.23;4397458;81;28615;-86
2021/03/07 14:44:38;;;;;;;6.12;2.80;;;;;;;5.00;43.66;99159.66;4400513;80;28557;-88
2021/03/07 14:50:41;;;;;;;6.10;2.83;;;;;;;4.98;43.42;99149.19;4397818;80;28563;-85
2021/03/07 14:56:43;;;;;;;5.10;2.58;;;;;;;4.96;44.06;99148.56;4398224;80;28606;-87
2021/03/07 15:02:46;;;;;;;5.65;3.08;;;;;;;4.91;43.69;99138.16;4390035;79;28555;-85
2021/03/07 15:08:50;;;;;;;5.42;2.77;;;;;;;4.83;43.88;99141.76;4375004;80;28587;-88
2021/03/07 15:14:54;;;;;;;6.42;3.08;;;;;;;4.86;44.52;99136.88;4367915;80;28541;-88
2021/03/07 15:20:56;;;;;;;5.87;2.83;;;;;;;4.82;45.21;99142.28;4378007;80;28606;-86
2021/03/07 15:27:01;;;;;;;8.28;3.47;;;;;;;4.79;48.17;99120.52;4381689;80;28559;-92
2021/03/07 15:33:05;;;;;;;7.78;3.83;;;;;;;4.67;49.03;99118.87;4364791;80;28543;-88
2021/03/07 15:39:08;;;;;;;6.15;3.05;;;;;;;4.61;49.09;99111.13;4374295;80;28565;-87
2021/03/07 15:45:11;;;;;;;7.50;3.65;;;;;;;4.60;50.97;99108.16;4394333;80;28562;-86
2021/03/07 15:51:13;;;;;;;7.58;3.50;;;;;;;4.46;50.47;99120.51;4372063;80;28546;-81
2021/03/07 15:57:17;;;;;;;9.60;3.85;;;;;;;4.33;52.49;99114.56;4363593;80;28616;-91
2021/03/07 16:03:19;;;;;;;6.65;3.85;;;;;;;4.18;53.90;99110.09;4317496;81;28590;-89
2021/03/07 16:09:23;;;;;;;8.53;4.30;;;;;;;4.06;55.45;99106.27;4389182;80;28603;-88
2021/03/07 16:15:26;;;;;;;11.12;4.22;;;;;;;3.94;56.71;99109.09;4373726;80;28633;-87
2021/03/07 16:21:28;;;;;;;10.72;4.78;;;;;;;3.85;58.07;99110.52;4389494;79;28666;-85
2021/03/07 16:27:30;;;;;;;10.35;5.00;;;;;;;3.70;60.22;99119.03;4394318;80;28560;-87
2021/03/07 16:33:31;;;;;;;10.78;4.75;;;;;;;3.62;60.91;99116.78;4377789;81;28559;-85
2021/03/07 16:39:34;;;;;;;9.63;4.92;;;;;;;3.49;61.96;99119.27;4395662;80;28599;-87
2021/03/07 16:45:36;;;;;;;10.85;4.92;;;;;;;3.39;62.93;99120.03;4444534;80;28598;-90
2021/03/07 16:51:39;;;;;;;9.10;4.75;;;;;;;3.31;64.29;99121.77;4417755;80;28608;-87
2021/03/07 16:57:41;;;;;;;12.07;5.25;;;;;;;3.26;65.34;99124.64;4350865;81;28617;-89
2021/03/07 17:03:43;;;;;;;12.18;5.62;;;;;;;3.21;66.70;99121.20;4296561;81;28558;-90
2021/03/07 17:09:47;;;;;;;11.03;5.53;;;;;;;3.15;67.42;99128.06;4311505;81;28635;-91
2021/03/07 17:15:51;;;;;;;12.75;5.85;;;;;;;3.08;68.96;99132.44;4344432;81;28578;-89
2021/03/07 17:21:55;;;;;;;11.15;5.33;;;;;;;2.97;69.99;99131.05;4372534;81;28578;-90
2021/03/07 17:28:00;;;;;;;11.88;5.08;;;;;;;2.83;71.53;99139.78;4365435;81;28567;-90
2021/03/07 17:34:03;;;;;;;13.35;6.22;;;;;;;2.68;73.54;99137.07;4358620;81;28564;-88
2021/03/07 17:40:07;;;;;;;14.98;7.22;;;;;;;2.62;74.13;99138.61;4364320;80;29061;-85
2021/03/07 17:46:09;;;;;;;15.08;7.35;;;;;;;2.54;75.22;99127.55;4363096;81;43925;-86
2021/03/07 17:52:11;;;;;;;16.48;7.87;;;;;;;2.49;76.38;99133.88;4346548;81;28631;-89
2021/03/07 17:58:14;;;;;;;15.30;7.85;;;;;;;2.40;77.29;99137.09;4365331;81;28601;-86
2021/03/07 18:04:21;;;;;;;19.57;8.13;;;;;;;2.35;79.07;99127.00;4372091;80;28559;-93
2021/03/07 18:10:24;;;;;;;19.17;8.63;;;;;;;2.30;81.57;99125.39;4333890;80;28555;-93
2021/03/07 18:16:27;;;;;;;19.12;9.18;;;;;;;2.24;83.41;99136.69;4368604;81;44024;-89
2021/03/07 18:22:31;;;;;;;19.90;9.35;;;;;;;2.05;86.63;99125.51;4317011;81;28579;-89
2021/03/07 18:28:38;;;;;;;16.87;8.58;;;;;;;2.02;86.25;99121.88;4347222;81;28603;-84
2021/03/07 18:34:40;;;;;;;18.52;9.48;;;;;;;2.00;89.96;99121.72;4356677;81;43956;-85
2021/03/07 18:40:47;;;;;;;;;;;;;;;1.98;91.83;99121.91;4368919;80;28597;-87
2021/03/07 18:46:52;;;;;;;19.25;9.40;;;;;;;1.83;92.82;99117.84;4401272;80;20265;-87
2021/03/07 18:52:57;;;;;;;21.42;9.70;;;;;;;1.61;95.83;99110.94;4378903;80;28621;-87
2021/03/07 18:59:01;;;;;;;22.67;11.03;;;;;;;1.59;94.73;99115.58;4381059;80;28542;-85
2021/03/07 19:05:08;;;;;;;21.00;10.53;;;;;;;1.53;95.17;99117.09;4289236;81;28655;-84
2021/03/07 19:11:17;;;;;;;22.87;11.53;;;;;;;1.49;97.50;99120.25;4286148;81;28648;-85
2021/03/07 19:17:19;;;;;;;21.60;10.90;;;;;;;1.43;99.44;99127.06;4308349;81;44467;-83
2021/03/07 19:23:22;;;;;;;23.45;11.68;;;;;;;1.22;99.86;99123.13;4378617;79;42880;-85
2021/03/07 19:29:28;;;;;;;26.73;12.33;;;;;;;1.01;100.00;99116.20;4365357;79;28579;-89
2021/03/07 19:35:31;;;;;;;25.45;12.30;;;;;;;0.82;100.00;99116.39;4389547;79;42893;-90
2021/03/07 19:41:35;;;;;;;26.15;12.30;;;;;;;0.67;100.00;99119.34;4385129;80;43078;-88
2021/03/07 19:47:48;;;;;;;28.90;13.30;;;;;;;0.66;100.00;99117.70;4616447;76;85472;-89
2021/03/07 19:53:53;;;;;;;25.57;12.75;;;;;;;0.43;100.00;99120.98;4483861;78;42906;-89
2021/03/07 19:59:55;;;;;;;29.57;14.25;;;;;;;0.32;100.00;99126.11;4494634;78;43415;-90
2021/03/07 20:06:18;;;;;;;28.27;14.58;;;;;;;0.21;100.00;99119.78;4499016;78;43399;-88
2021/03/07 20:12:20;;;;;;;30.77;14.53;;;;;;;0.10;100.00;99110.34;4509695;78;44132;-90
2021/03/07 20:18:22;;;;;;;30.08;14.98;;;;;;;0.05;100.00;99125.37;4520094;78;44412;-87
2021/03/07 20:24:25;;;;;;;30.70;14.20;;;;;;;-0.03;100.00;99116.09;4530034;78;44105;-88
2021/03/07 20:30:29;;;;;;;33.13;15.95;;;;;;;-0.15;100.00;99123.50;4490209;78;44101;-89
2021/03/07 20:36:32;;;;;;;33.02;17.12;;;;;;;-0.20;100.00;99132.38;4505599;78;44085;-92
2021/03/07 20:42:53;;;;;;;31.07;15.98;;;;;;;-0.25;100.00;99127.57;4484786;78;44121;-90
2021/03/07 20:48:58;;;;;;;39.50;17.93;;;;;;;-0.32;100.00;99126.54;4508131;78;28642;-90
2021/03/07 20:55:04;;;;;;;37.08;17.98;;;;;;;-0.36;100.00;99126.53;4491008;79;44538;-92
2021/03/07 21:01:07;;;;;;;40.17;18.13;;;;;;;-0.36;100.00;99132.66;4490089;78;28624;-92
2021/03/07 21:07:13;;;;;;;38.17;18.90;;;;;;;-0.40;100.00;99133.94;4423988;79;28577;-88
2021/03/07 21:13:15;;;;;;;37.83;18.67;;;;;;;-0.44;100.00;99133.42;4505128;78;44452;-90
2021/03/07 21:19:17;;;;;;;39.95;18.98;;;;;;;-0.54;100.00;99121.34;4479299;78;44514;-89
2021/03/07 21:25:20;;;;;;;41.02;20.15;;;;;;;-0.45;100.00;99128.31;4483043;78;43781;-87
2021/03/07 21:31:24;;;;;;;39.80;20.30;;;;;;;-0.39;100.00;99130.31;4496743;78;43643;-90
2021/03/07 21:37:27;;;;;;;42.83;21.57;;;;;;;-0.28;100.00;99119.97;4482195;78;43775;-83
2021/03/07 21:43:29;;;;;;;39.27;18.50;;;;;;;-0.11;100.00;99130.59;4368062;80;44475;-85
2021/03/07 21:49:31;;;;;;;44.80;21.70;;;;;;;0.05;100.00;99131.98;4336626;80;43757;-88
2021/03/07 21:55:33;;;;;;;39.53;20.82;;;;;;;0.22;100.00;99125.42;4342485;81;43332;-89
2021/03/07 22:01:36;;;;;;;53.00;24.85;;;;;;;0.37;100.00;99119.83;4340843;81;43990;-90
2021/03/07 22:07:39;;;;;;;54.03;24.55;;;;;;;0.45;100.00;99116.36;4344220;81;43661;-91
2021/03/07 22:13:41;;;;;;;53.35;23.87;;;;;;;0.59;100.00;99124.66;4346088;81;28578;-91
2021/03/07 22:19:43;;;;;;;57.23;26.90;;;;;;;0.71;100.00;99107.94;4357776;80;43718;-88
2021/03/07 22:25:45;;;;;;;59.03;26.37;;;;;;;0.85;100.00;99106.45;4335216;80;43394;-90
2021/03/07 22:31:47;;;;;;;47.80;21.33;;;;;;;0.94;100.00;99102.81;4328127;80;44463;-84
2021/03/07 22:37:50;;;;;;;43.70;20.70;;;;;;;0.99;100.00;99100.98;4344730;80;43747;-83
2021/03/07 22:43:52;;;;;;;47.25;22.00;;;;;;;1.01;100.00;99095.86;4331346;80;43740;-85
2021/03/07 22:49:54;;;;;;;45.12;21.50;;;;;;;1.03;100.00;99093.87;4366559;81;43749;-85
2021/03/07 22:55:57;;;;;;;59.48;27.30;;;;;;;0.99;100.00;99096.53;4351460;80;43063;-87
2021/03/07 23:01:59;;;;;;;70.17;30.60;;;;;;;0.87;100.00;99099.17;4359941;81;44104;-86
2021/03/07 23:08:02;;;;;;;76.55;33.45;;;;;;;0.73;100.00;99100.66;4308428;80;43690;-86
2021/03/07 23:14:04;;;;;;;78.00;33.83;;;;;;;0.75;100.00;99092.89;4351108;80;43035;-87
2021/03/07 23:20:10;;;;;;;80.92;34.43;;;;;;;0.58;100.00;99080.67;4360079;80;43065;-86
2021/03/07 23:26:13;;;;;;;70.47;30.95;;;;;;;0.53;100.00;99084.63;4342693;80;44142;-88
2021/03/07 23:32:15;;;;;;;61.33;29.55;;;;;;;0.46;100.00;99080.97;4369211;80;43426;-87
2021/03/07 23:38:17;;;;;;;60.05;26.07;;;;;;;0.38;100.00;99077.02;4357542;80;42342;-86
2021/03/07 23:44:19;;;;;;;57.05;27.17;;;;;;;0.33;100.00;99078.84;4358807;81;43792;-88
2021/03/07 23:50:22;;;;;;;59.38;27.42;;;;;;;0.24;100.00;99081.13;4384175;80;42890;-87
2021/03/07 23:56:25;;;;;;;58.83;26.07;;;;;;;0.13;100.00;99084.90;4286586;81;42474;-89
